Time;durP1;ratioP1;P1;durP2;ratioP2;P2;SDS_P1;SDS_P2;PMS_P1;PMS_P2;Temp;Humidity;BMP_temperature;BMP_pressure;BME280_temperature;BME280_humidity;BME280_pressure;Samples;Min_cycle;Max_cycle;Signal;HPM_P1;HPM_P2
2021/06/28 00:02:07;;;;;;;4.07;2.85;;;21.10;90.30;;;;;;4991025;28;20046;-73
2021/06/28 00:04:33;;;;;;;4.03;2.92;;;21.10;90.30;;;;;;4990885;28;20039;-72
2021/06/28 00:06:59;;;;;;;3.80;2.75;;;21.10;90.50;;;;;;4990786;28;20038;-71
2021/06/28 00:09:24;;;;;;;5.18;2.70;;;21.00;90.60;;;;;;4990768;28;20045;-71
2021/06/28 00:11:50;;;;;;;3.60;3.05;;;21.00;90.80;;;;;;5006682;28;20022;-71
2021/06/28 00:14:16;;;;;;;4.38;2.80;;;21.00;91.00;;;;;;4990551;28;20176;-71
2021/06/28 00:16:41;;;;;;;4.60;2.92;;;21.10;91.10;;;;;;4990886;28;20480;-71
2021/06/28 00:19:07;;;;;;;4.22;2.95;;;21.00;91.10;;;;;;4990412;28;20106;-71
2021/06/28 00:21:33;;;;;;;3.13;2.83;;;21.10;91.10;;;;;;5005856;28;20165;-72
2021/06/28 00:23:59;;;;;;;3.28;2.78;;;21.00;91.10;;;;;;4991274;28;20030;-72
2021/06/28 00:26:24;;;;;;;4.65;3.30;;;21.00;91.10;;;;;;5006244;28;20044;-71
2021/06/28 00:28:50;;;;;;;3.45;2.72;;;21.00;91.30;;;;;;4990700;28;20165;-72
2021/06/28 00:31:16;;;;;;;3.65;2.80;;;21.10;91.40;;;;;;5006184;28;20038;-71
2021/06/28 00:33:41;;;;;;;3.72;2.83;;;21.10;91.30;;;;;;4992048;28;20061;-72
2021/06/28 00:36:07;;;;;;;3.10;2.78;;;21.10;91.20;;;;;;5010029;28;20054;-71
2021/06/28 00:38:33;;;;;;;3.55;2.58;;;21.20;91.40;;;;;;4993880;28;20542;-72
2021/06/28 00:40:59;;;;;;;4.95;3.03;;;21.20;91.30;;;;;;4994449;28;20419;-71
2021/06/28 00:43:25;;;;;;;4.90;3.45;;;21.20;91.30;;;;;;5009268;28;20389;-71
2021/06/28 00:45:50;;;;;;;3.25;2.53;;;21.20;91.40;;;;;;4994155;28;20038;-71
2021/06/28 00:48:17;;;;;;;5.50;3.08;;;21.20;91.60;;;;;;4994353;28;20061;-72
2021/06/28 00:50:49;;;;;;;4.97;3.30;;;21.10;91.70;;;;;;4976702;28;20423;-72
2021/06/28 00:53:18;;;;;;;4.20;3.00;;;21.10;91.50;;;;;;4993589;28;20356;-72
2021/06/28 00:55:45;;;;;;;3.58;3.10;;;21.10;91.70;;;;;;4993651;28;20070;-72
2021/06/28 00:58:11;;;;;;;4.63;2.67;;;21.10;91.90;;;;;;4993434;28;20430;-71
2021/06/28 01:00:37;;;;;;;7.75;3.35;;;21.10;91.90;;;;;;4993434;28;20109;-72
2021/06/28 01:03:03;;;;;;;4.00;2.92;;;21.10;92.10;;;;;;4993913;28;20022;-72
2021/06/28 01:05:32;;;;;;;5.22;3.22;;;21.10;92.30;;;;;;5008898;28;20113;-71
2021/06/28 01:07:59;;;;;;;4.65;3.17;;;21.10;92.30;;;;;;4993191;28;20384;-72
2021/06/28 01:10:25;;;;;;;5.78;3.33;;;21.00;92.20;;;;;;4993217;28;20034;-71
2021/06/28 01:12:51;;;;;;;6.78;3.20;;;21.00;92.30;;;;;;4993074;28;20088;-73
2021/06/28 01:15:18;;;;;;;3.90;3.33;;;21.00;92.40;;;;;;4994164;28;20131;-70
2021/06/28 01:17:44;;;;;;;4.07;3.15;;;21.00;92.40;;;;;;4992944;28;20468;-72
2021/06/28 01:20:16;;;;;;;4.85;3.33;;;21.00;92.50;;;;;;4993087;28;20101;-72
2021/06/28 01:22:48;;;;;;;6.65;3.50;;;20.90;92.50;;;;;;4992824;28;20150;-70
2021/06/28 01:25:18;;;;;;;3.63;3.08;;;20.90;92.80;;;;;;4992929;28;20050;-73
2021/06/28 01:27:44;;;;;;;4.65;3.50;;;20.90;92.90;;;;;;4992843;28;20027;-72
2021/06/28 01:30:15;;;;;;;4.65;3.40;;;20.90;93.00;;;;;;4993739;28;20046;-72
2021/06/28 01:32:44;;;;;;;4.18;3.33;;;20.80;93.10;;;;;;4993026;28;20376;-73
2021/06/28 01:35:10;;;;;;;3.75;3.13;;;20.70;93.20;;;;;;4995976;28;20030;-71
2021/06/28 01:37:36;;;;;;;4.35;3.10;;;20.70;93.30;;;;;;5012522;28;20121;-72
2021/06/28 01:40:05;;;;;;;6.32;3.08;;;20.80;93.30;;;;;;4995461;28;20425;-71
2021/06/28 01:42:32;;;;;;;6.75;3.90;;;20.80;93.00;;;;;;5012160;28;20026;-72
2021/06/28 01:44:58;;;;;;;5.85;4.03;;;20.90;92.90;;;;;;5011817;28;20072;-71
2021/06/28 01:47:24;;;;;;;4.72;3.70;;;20.90;92.90;;;;;;5012228;28;20025;-71
2021/06/28 01:49:50;;;;;;;3.85;2.88;;;20.90;93.00;;;;;;5012152;28;20041;-71
2021/06/28 01:52:17;;;;;;;5.18;3.65;;;20.90;93.00;;;;;;5012104;28;20361;-71
2021/06/28 01:54:42;;;;;;;5.43;3.33;;;20.90;93.10;;;;;;5012045;28;20034;-72
2021/06/28 01:57:08;;;;;;;4.45;3.22;;;20.90;93.30;;;;;;4995258;28;20075;-71
2021/06/28 01:59:36;;;;;;;4.53;3.50;;;20.90;93.30;;;;;;5012030;28;20038;-71
2021/06/28 02:02:03;;;;;;;7.90;3.55;;;20.80;93.20;;;;;;5011994;28;20034;-72
2021/06/28 02:04:29;;;;;;;7.63;3.77;;;20.80;93.10;;;;;;5012036;28;20091;-72
2021/06/28 02:06:56;;;;;;;3.92;3.17;;;20.80;93.10;;;;;;4994842;28;20363;-72
2021/06/28 02:09:22;;;;;;;11.68;3.65;;;20.90;93.10;;;;;;5012250;28;20093;-72
2021/06/28 02:11:49;;;;;;;7.47;3.83;;;20.80;93.10;;;;;;4994743;28;20030;-72
2021/06/28 02:14:15;;;;;;;7.53;3.40;;;20.80;93.40;;;;;;5011714;28;20026;-71
2021/06/28 02:16:48;;;;;;;5.45;3.85;;;20.80;93.50;;;;;;5011624;28;20054;-72
2021/06/28 02:19:15;;;;;;;6.15;3.40;;;20.80;93.60;;;;;;5011620;28;20045;-71
2021/06/28 02:21:42;;;;;;;9.13;3.65;;;20.70;93.70;;;;;;5011853;28;20022;-71
2021/06/28 02:24:08;;;;;;;5.22;3.70;;;20.70;93.80;;;;;;5012275;28;20101;-70
2021/06/28 02:26:34;;;;;;;8.10;3.83;;;20.70;93.80;;;;;;5011664;28;20117;-69
2021/06/28 02:29:00;;;;;;;5.57;3.50;;;20.70;93.70;;;;;;5011382;28;20129;-70
2021/06/28 02:31:26;;;;;;;4.50;3.65;;;20.70;93.40;;;;;;4993806;28;20059;-70
2021/06/28 02:33:53;;;;;;;3.85;3.25;;;20.80;93.00;;;;;;5011321;28;20030;-71
2021/06/28 02:36:21;;;;;;;5.60;3.43;;;20.70;93.20;;;;;;5011855;28;20053;-71
2021/06/28 02:38:48;;;;;;;5.47;3.33;;;20.80;93.20;;;;;;5011163;28;20597;-70
2021/06/28 02:41:15;;;;;;;6.30;3.58;;;20.70;93.00;;;;;;5011412;28;20025;-70
2021/06/28 02:43:41;;;;;;;4.30;3.47;;;20.70;93.40;;;;;;5011334;28;20037;-72
2021/06/28 02:46:07;;;;;;;5.32;3.65;;;20.70;93.50;;;;;;5011258;28;20096;-70
2021/06/28 02:48:34;;;;;;;5.22;3.50;;;20.70;93.80;;;;;;5011297;28;20025;-71
2021/06/28 02:50:59;;;;;;;9.65;3.80;;;20.70;93.90;;;;;;5011802;28;20390;-71
2021/06/28 02:53:25;;;;;;;8.38;3.80;;;20.70;93.10;;;;;;5011489;28;20444;-71
2021/06/28 02:55:51;;;;;;;8.07;4.07;;;20.80;93.00;;;;;;5010925;28;20511;-69
2021/06/28 02:58:18;;;;;;;5.43;3.67;;;20.80;92.90;;;;;;5002989;28;20065;-69
2021/06/28 03:00:44;;;;;;;5.10;3.53;;;20.90;92.80;;;;;;5010867;28;20605;-71
2021/06/28 03:03:11;;;;;;;8.38;4.10;;;20.90;92.70;;;;;;4994013;28;20076;-71
2021/06/28 03:05:37;;;;;;;7.00;3.30;;;20.90;92.70;;;;;;5011070;28;20068;-71
2021/06/28 03:08:06;;;;;;;7.60;3.00;;;20.90;92.60;;;;;;5010849;28;20030;-72
2021/06/28 03:10:32;;;;;;;119.88;11.90;;;20.90;92.70;;;;;;4993260;28;20418;-70
2021/06/28 03:12:58;;;;;;;25.60;5.35;;;20.90;92.70;;;;;;5010812;28;20049;-71
2021/06/28 03:15:24;;;;;;;6.28;4.00;;;20.90;92.80;;;;;;5010834;28;20483;-70
2021/06/28 03:17:49;;;;;;;8.80;3.50;;;20.90;93.00;;;;;;5011232;28;20018;-71
2021/06/28 03:20:16;;;;;;;6.38;3.80;;;20.90;93.00;;;;;;5010701;28;20026;-72
2021/06/28 03:22:45;;;;;;;6.50;4.20;;;21.00;92.90;;;;;;5010492;28;20045;-72
2021/06/28 03:25:16;;;;;;;9.90;3.88;;;21.00;93.00;;;;;;5010687;28;20142;-71
2021/06/28 03:27:43;;;;;;;7.00;3.75;;;21.00;92.70;;;;;;5010749;28;20029;-71
2021/06/28 03:30:11;;;;;;;6.43;3.85;;;20.90;92.60;;;;;;4993526;28;20345;-71
2021/06/28 03:32:37;;;;;;;5.90;3.63;;;21.00;92.50;;;;;;5010750;28;20052;-71
2021/06/28 03:35:04;;;;;;;4.28;3.42;;;21.00;92.70;;;;;;5010767;28;20616;-72
2021/06/28 03:37:30;;;;;;;10.65;3.75;;;21.00;92.60;;;;;;5010759;28;20377;-70
2021/06/28 03:39:55;;;;;;;5.45;3.67;;;21.10;92.30;;;;;;5010514;28;20638;-70
2021/06/28 03:42:21;;;;;;;7.00;3.65;;;21.10;92.50;;;;;;5011014;28;20376;-71
2021/06/28 03:44:46;;;;;;;6.05;3.47;;;21.00;92.70;;;;;;4993351;28;20339;-71
2021/06/28 03:47:12;;;;;;;4.93;3.30;;;21.00;92.90;;;;;;4993303;28;20108;-72
2021/06/28 03:49:38;;;;;;;5.75;3.75;;;21.00;93.00;;;;;;5010561;28;20033;-70
2021/06/28 03:52:04;;;;;;;8.10;3.65;;;21.00;92.80;;;;;;5010413;28;20064;-71
2021/06/28 03:54:29;;;;;;;11.48;3.90;;;21.00;93.20;;;;;;5010336;28;20037;-71
2021/06/28 03:56:55;;;;;;;5.38;3.60;;;20.90;93.00;;;;;;4993707;28;20014;-71
2021/06/28 03:59:21;;;;;;;8.13;4.05;;;20.90;93.20;;;;;;5010390;28;20033;-72
2021/06/28 04:01:47;;;;;;;6.95;4.00;;;21.00;93.20;;;;;;5010321;28;20038;-71
2021/06/28 04:04:12;;;;;;;6.47;4.03;;;21.00;93.00;;;;;;5010386;28;20038;-71
2021/06/28 04:06:38;;;;;;;11.80;3.72;;;21.00;92.70;;;;;;5010114;28;20030;-71
2021/06/28 04:09:04;;;;;;;15.57;4.10;;;21.00;92.60;;;;;;5012612;28;20026;-69
2021/06/28 04:11:30;;;;;;;10.65;4.10;;;21.10;92.70;;;;;;5014574;28;20037;-71
2021/06/28 04:13:59;;;;;;;9.30;3.88;;;21.10;92.60;;;;;;4996589;28;20652;-70
2021/06/28 04:16:25;;;;;;;6.97;3.88;;;21.10;93.10;;;;;;5014008;28;20478;-71
2021/06/28 04:18:51;;;;;;;5.15;3.30;;;21.00;92.70;;;;;;5013660;28;20122;-70
2021/06/28 04:21:17;;;;;;;6.65;3.72;;;21.10;92.70;;;;;;5014224;28;20069;-70
2021/06/28 04:23:43;;;;;;;6.95;3.63;;;21.00;93.10;;;;;;5013615;28;20471;-71
2021/06/28 04:26:09;;;;;;;8.80;3.92;;;21.00;93.30;;;;;;4996223;28;20026;-71
2021/06/28 04:28:35;;;;;;;6.75;4.03;;;21.00;93.10;;;;;;5013537;28;20419;-70
2021/06/28 04:31:01;;;;;;;7.38;3.42;;;21.00;93.10;;;;;;4996246;28;20029;-70
2021/06/28 04:33:27;;;;;;;10.10;3.60;;;21.00;93.00;;;;;;5013950;28;20045;-71
2021/06/28 04:35:53;;;;;;;11.98;3.95;;;21.00;92.90;;;;;;4996811;28;20451;-70
2021/06/28 04:38:18;;;;;;;6.63;3.67;;;21.10;93.10;;;;;;5013370;28;20036;-71
2021/06/28 04:40:46;;;;;;;8.48;3.75;;;21.00;93.10;;;;;;5013492;28;20096;-71
2021/06/28 04:43:11;;;;;;;7.40;3.97;;;21.10;93.10;;;;;;4996104;28;20154;-71
2021/06/28 04:45:37;;;;;;;8.52;3.97;;;21.00;93.20;;;;;;5013224;28;20405;-72
2021/06/28 04:48:03;;;;;;;6.72;3.67;;;21.00;93.00;;;;;;5013807;28;20124;-71
2021/06/28 04:50:29;;;;;;;8.48;4.00;;;21.00;93.00;;;;;;5013749;28;20038;-70
2021/06/28 04:52:55;;;;;;;11.35;3.88;;;21.00;93.00;;;;;;4995924;28;20495;-71
2021/06/28 04:55:22;;;;;;;10.63;4.10;;;21.00;93.00;;;;;;4995850;28;20112;-71
2021/06/28 04:57:49;;;;;;;8.52;4.40;;;21.00;93.10;;;;;;4995914;28;20026;-71
2021/06/28 05:00:17;;;;;;;6.35;3.55;;;21.10;93.10;;;;;;5013722;28;20045;-71
2021/06/28 05:02:43;;;;;;;;;;;21.00;93.00;;;;;;5013325;28;20412;-71
2021/06/28 05:05:10;;;;;;;6.07;2.90;;;21.00;93.10;;;;;;5012927;28;19910;-71
2021/06/28 05:07:36;;;;;;;19.10;4.25;;;21.10;92.90;;;;;;5013159;28;20113;-70
2021/06/28 05:10:03;;;;;;;8.18;4.05;;;21.10;93.00;;;;;;5013326;28;20034;-71
2021/06/28 05:12:28;;;;;;;6.75;3.70;;;21.10;93.20;;;;;;5013123;28;20022;-70
2021/06/28 05:14:54;;;;;;;6.18;4.10;;;21.20;93.00;;;;;;5013307;28;20029;-71
2021/06/28 05:17:19;;;;;;;8.80;4.03;;;21.20;94.20;;;;;;5012836;28;20034;-72
2021/06/28 05:19:45;;;;;;;12.10;6.18;;;21.20;94.40;;;;;;5011687;28;20030;-69
2021/06/28 05:22:11;;;;;;;10.98;4.78;;;21.20;94.40;;;;;;5012413;28;20022;-70
2021/06/28 05:24:37;;;;;;;9.20;6.18;;;21.10;96.00;;;;;;5012320;28;20022;-70
2021/06/28 05:27:03;;;;;;;11.98;5.10;;;21.20;95.30;;;;;;5013267;28;20022;-71
2021/06/28 05:29:28;;;;;;;11.93;5.30;;;21.20;95.80;;;;;;5012485;28;20062;-70
2021/06/28 05:31:54;;;;;;;10.43;5.57;;;21.20;97.00;;;;;;5012695;28;20048;-70
2021/06/28 05:34:23;;;;;;;8.10;4.50;;;21.20;96.70;;;;;;4995017;28;20372;-71
2021/06/28 05:36:48;;;;;;;5.80;3.78;;;21.20;96.50;;;;;;5012482;28;20051;-73
2021/06/28 05:39:14;;;;;;;10.20;5.32;;;21.20;96.00;;;;;;4995792;28;20018;-73
2021/06/28 05:41:40;;;;;;;8.18;4.35;;;21.20;96.60;;;;;;5012530;28;20144;-72
2021/06/28 05:44:06;;;;;;;10.88;4.57;;;21.20;97.00;;;;;;5011974;28;20045;-72
2021/06/28 05:46:31;;;;;;;12.80;4.90;;;21.20;97.30;;;;;;5012170;28;20038;-73
2021/06/28 05:48:57;;;;;;;9.43;4.93;;;21.20;97.30;;;;;;4995087;28;20038;-72
2021/06/28 05:51:22;;;;;;;9.48;4.60;;;21.20;97.80;;;;;;5012017;28;20032;-74
2021/06/28 05:53:48;;;;;;;15.10;4.95;;;21.30;97.40;;;;;;4995030;28;20022;-72
2021/06/28 05:56:15;;;;;;;6.97;4.68;;;21.30;97.20;;;;;;5011968;28;20034;-73
2021/06/28 05:58:41;;;;;;;5.50;4.30;;;21.40;97.50;;;;;;5011801;28;20034;-73
2021/06/28 06:01:07;;;;;;;13.60;7.60;;;21.40;97.10;;;;;;5011834;28;20419;-73
2021/06/28 06:03:33;;;;;;;6.63;4.55;;;21.40;96.30;;;;;;5011670;28;20436;-74
2021/06/28 06:05:59;;;;;;;8.45;4.25;;;21.50;96.30;;;;;;5012427;28;20025;-73
2021/06/28 06:08:25;;;;;;;14.40;4.70;;;21.60;96.10;;;;;;5011936;28;20083;-75
2021/06/28 06:10:57;;;;;;;8.15;4.40;;;21.60;96.10;;;;;;4994401;28;20060;-73
2021/06/28 06:13:23;;;;;;;10.82;4.40;;;21.70;95.90;;;;;;5011550;28;20091;-73
2021/06/28 06:15:50;;;;;;;17.85;9.25;;;21.70;96.20;;;;;;5011639;28;20404;-74
2021/06/28 06:18:15;;;;;;;9.85;5.15;;;21.80;95.80;;;;;;5012408;28;20096;-73
2021/06/28 06:20:43;;;;;;;8.85;4.63;;;21.80;95.20;;;;;;4993623;28;20507;-73
2021/06/28 06:23:09;;;;;;;9.57;4.35;;;21.90;95.20;;;;;;5011361;28;20034;-73
2021/06/28 06:25:35;;;;;;;6.80;4.53;;;21.90;94.80;;;;;;4994025;28;20068;-75
2021/06/28 06:28:00;;;;;;;8.43;4.57;;;22.00;94.90;;;;;;5010796;28;20050;-76
2021/06/28 06:30:26;;;;;;;11.43;4.40;;;22.10;95.30;;;;;;4994066;28;20056;-75
2021/06/28 06:32:52;;;;;;;13.00;4.53;;;22.10;94.90;;;;;;5011545;28;20080;-75
2021/06/28 06:35:20;;;;;;;5.65;3.78;;;22.20;94.70;;;;;;5010405;28;20086;-75
2021/06/28 06:37:47;;;;;;;8.25;4.78;;;22.40;94.70;;;;;;5011207;28;20123;-75
2021/06/28 06:40:13;;;;;;;12.18;3.83;;;22.50;94.50;;;;;;5011551;28;20088;-73
2021/06/28 06:42:39;;;;;;;14.15;4.47;;;22.60;94.20;;;;;;4993872;28;20018;-73
2021/06/28 06:45:06;;;;;;;11.18;3.65;;;22.70;93.80;;;;;;5011581;28;20025;-75
2021/06/28 06:47:32;;;;;;;7.10;3.78;;;22.70;93.60;;;;;;4993715;28;20034;-75
2021/06/28 06:49:57;;;;;;;13.52;3.95;;;22.80;93.40;;;;;;5002803;28;20088;-73
2021/06/28 06:52:23;;;;;;;8.18;4.00;;;22.80;93.30;;;;;;5011248;28;20413;-75
2021/06/28 06:54:48;;;;;;;6.80;3.63;;;22.90;93.30;;;;;;5010786;28;20360;-73
2021/06/28 06:57:14;;;;;;;12.27;3.97;;;23.00;93.10;;;;;;5011517;28;20036;-75
2021/06/28 06:59:40;;;;;;;7.47;4.10;;;23.00;92.90;;;;;;5011050;28;20029;-74
2021/06/28 07:02:05;;;;;;;9.50;4.03;;;23.10;92.70;;;;;;4993499;28;20030;-74
2021/06/28 07:04:32;;;;;;;9.32;4.05;;;23.10;93.00;;;;;;5011152;28;20052;-74
2021/06/28 07:06:59;;;;;;;8.43;3.70;;;23.20;92.80;;;;;;5011017;28;20030;-75
2021/06/28 07:09:26;;;;;;;10.53;4.13;;;23.30;92.50;;;;;;5011066;28;20026;-75
2021/06/28 07:11:52;;;;;;;6.63;3.58;;;23.40;92.40;;;;;;4993986;28;20113;-75
2021/06/28 07:14:17;;;;;;;13.75;4.28;;;23.40;92.30;;;;;;5010914;28;20168;-76
2021/06/28 07:16:44;;;;;;;9.75;4.18;;;23.40;92.30;;;;;;5010780;28;20369;-73
2021/06/28 07:19:17;;;;;;;14.88;4.63;;;23.50;91.80;;;;;;5010726;28;20507;-75
2021/06/28 07:21:44;;;;;;;9.82;4.10;;;23.60;91.80;;;;;;4992991;28;20045;-73
2021/06/28 07:24:13;;;;;;;12.18;4.78;;;23.60;91.10;;;;;;5011250;28;20032;-76
2021/06/28 07:26:44;;;;;;;8.52;3.95;;;23.50;90.80;;;;;;4993280;28;20061;-76
2021/06/28 07:29:10;;;;;;;9.18;4.20;;;23.40;91.00;;;;;;4993026;28;20383;-76
2021/06/28 07:31:36;;;;;;;16.10;4.90;;;23.40;91.00;;;;;;4993356;28;20038;-73
2021/06/28 07:34:02;;;;;;;16.13;4.22;;;23.50;90.80;;;;;;5010609;28;20038;-75
2021/06/28 07:36:27;;;;;;;13.15;4.38;;;23.50;90.90;;;;;;5010279;28;20444;-73
2021/06/28 07:38:53;;;;;;;17.13;4.72;;;23.60;91.00;;;;;;5011050;28;20022;-73
2021/06/28 07:41:19;;;;;;;12.60;4.28;;;23.80;91.20;;;;;;5010116;28;20092;-73
2021/06/28 07:43:45;;;;;;;8.85;4.47;;;23.90;91.10;;;;;;5011556;28;20416;-75
2021/06/28 07:46:11;;;;;;;10.75;3.95;;;24.10;91.10;;;;;;5014431;28;20026;-75
2021/06/28 07:48:36;;;;;;;8.20;4.10;;;24.50;90.40;;;;;;5014812;28;20040;-74
2021/06/28 07:51:02;;;;;;;9.18;4.05;;;25.20;90.00;;;;;;4997282;28;20121;-75
2021/06/28 07:53:28;;;;;;;10.75;4.85;;;26.00;88.40;;;;;;5014509;28;20030;-75
2021/06/28 07:55:54;;;;;;;11.65;4.13;;;26.80;86.40;;;;;;5014418;28;20029;-74
2021/06/28 07:58:19;;;;;;;12.57;4.75;;;27.20;84.00;;;;;;5014151;28;20117;-73
2021/06/28 08:00:45;;;;;;;9.68;3.75;;;27.40;81.90;;;;;;5014239;28;20360;-74
2021/06/28 08:03:10;;;;;;;6.60;3.60;;;27.40;79.60;;;;;;5014519;28;20095;-74
2021/06/28 08:05:38;;;;;;;5.43;3.92;;;27.70;77.80;;;;;;5014509;28;20396;-74
2021/06/28 08:08:04;;;;;;;;;;;28.10;76.60;;;;;;5014602;28;20026;-73
2021/06/28 08:10:30;;;;;;;6.85;3.35;;;28.70;78.10;;;;;;5014447;28;19967;-75
2021/06/28 08:12:57;;;;;;;9.55;3.88;;;29.60;76.90;;;;;;4996191;28;20404;-73
2021/06/28 08:15:23;;;;;;;8.00;3.50;;;30.50;73.40;;;;;;5014385;28;20033;-74
2021/06/28 08:17:50;;;;;;;9.80;4.15;;;30.60;67.70;;;;;;5014497;28;20109;-73
2021/06/28 08:20:18;;;;;;;6.28;3.17;;;30.50;68.30;;;;;;5013872;28;20026;-74
2021/06/28 08:22:44;;;;;;;12.85;4.30;;;30.60;66.20;;;;;;5013784;28;20045;-75
2021/06/28 08:25:11;;;;;;;19.25;4.18;;;31.40;66.60;;;;;;5013696;28;20029;-74
2021/06/28 08:27:36;;;;;;;11.70;4.20;;;32.30;65.00;;;;;;5013422;28;20032;-72
2021/06/28 08:30:05;;;;;;;10.57;3.70;;;32.50;62.30;;;;;;5014007;28;20046;-73
2021/06/28 08:32:30;;;;;;;6.22;3.55;;;33.40;59.60;;;;;;5013685;28;20034;-73
2021/06/28 08:34:56;;;;;;;8.43;3.85;;;34.10;57.50;;;;;;5013746;28;20568;-71
2021/06/28 08:37:22;;;;;;;5.78;3.78;;;34.20;54.10;;;;;;5013570;28;20053;-75
2021/06/28 08:39:48;;;;;;;12.85;3.55;;;34.80;54.10;;;;;;5013544;28;20121;-74
2021/06/28 08:42:15;;;;;;;4.30;3.10;;;35.00;53.60;;;;;;5013922;28;20030;-75
2021/06/28 08:44:44;;;;;;;8.45;3.30;;;34.70;51.90;;;;;;5013006;28;20026;-74
2021/06/28 08:47:10;;;;;;;5.85;3.90;;;35.00;50.60;;;;;;5013212;28;20046;-76
2021/06/28 08:49:37;;;;;;;6.05;3.63;;;35.10;51.30;;;;;;5013344;28;20034;-76
2021/06/28 08:52:04;;;;;;;6.75;3.33;;;35.20;50.80;;;;;;5013215;28;20042;-74
2021/06/28 08:54:30;;;;;;;6.65;3.60;;;35.40;50.20;;;;;;5012898;28;20026;-72
2021/06/28 08:56:57;;;;;;;11.85;4.07;;;35.10;48.90;;;;;;4996274;28;20085;-75
2021/06/28 08:59:22;;;;;;;3.83;3.30;;;35.20;48.40;;;;;;5013060;28;20038;-76
2021/06/28 09:01:48;;;;;;;4.28;3.15;;;35.10;49.20;;;;;;5012730;28;20267;-75
2021/06/28 09:04:14;;;;;;;6.22;3.67;;;35.00;48.30;;;;;;5013059;28;20415;-72
2021/06/28 09:06:40;;;;;;;7.10;4.15;;;34.70;48.90;;;;;;4995708;28;20490;-72
2021/06/28 09:09:11;;;;;;;4.65;3.28;;;34.40;49.70;;;;;;5013904;28;20030;-73
2021/06/28 09:11:42;;;;;;;5.50;3.65;;;34.70;50.20;;;;;;5013355;28;20120;-73
2021/06/28 09:14:10;;;;;;;4.53;3.38;;;34.60;49.80;;;;;;5012849;28;20034;-73
2021/06/28 09:16:38;;;;;;;5.18;3.00;;;34.80;48.30;;;;;;5012607;28;20033;-74
2021/06/28 09:19:14;;;;;;;4.50;3.35;;;34.80;49.40;;;;;;5012741;28;20044;-73
2021/06/28 09:21:50;;;;;;;5.10;3.08;;;34.90;49.10;;;;;;4995295;28;20018;-71
2021/06/28 09:24:36;;;;;;;5.53;3.85;;;34.70;48.50;;;;;;5013079;28;20022;-70
2021/06/28 09:27:11;;;;;;;6.25;4.10;;;34.50;48.50;;;;;;5013031;28;20046;-70
2021/06/28 09:29:43;;;;;;;4.80;3.83;;;33.70;49.80;;;;;;5012707;28;20049;-71
2021/06/28 09:32:14;;;;;;;4.10;3.15;;;33.40;49.10;;;;;;5012410;28;20026;-71
2021/06/28 09:34:42;;;;;;;7.32;2.92;;;33.00;50.20;;;;;;5012802;28;20030;-70
2021/06/28 09:37:26;;;;;;;5.78;3.28;;;32.90;50.40;;;;;;5012663;28;20026;-69
2021/06/28 09:39:55;;;;;;;3.72;3.15;;;32.80;50.40;;;;;;5012807;28;20037;-70
2021/06/28 09:42:23;;;;;;;4.28;3.33;;;32.80;50.50;;;;;;5013006;28;20472;-69
2021/06/28 09:44:56;;;;;;;3.38;3.15;;;32.90;50.60;;;;;;5012546;28;20113;-71
2021/06/28 09:47:25;;;;;;;5.95;3.30;;;32.90;50.00;;;;;;5012082;28;20425;-70
2021/06/28 09:50:13;;;;;;;5.03;3.08;;;32.80;49.90;;;;;;5012209;28;20108;-70
2021/06/28 09:52:44;;;;;;;4.30;3.50;;;32.50;50.60;;;;;;5011726;28;20096;-70
2021/06/28 09:55:17;;;;;;;8.48;3.88;;;32.00;51.30;;;;;;5012171;28;20365;-71
2021/06/28 09:58:03;;;;;;;6.53;3.75;;;32.00;50.40;;;;;;4994286;28;20069;-70
2021/06/28 10:00:29;;;;;;;4.00;3.20;;;32.00;50.40;;;;;;5012110;28;20021;-69
2021/06/28 10:02:54;;;;;;;6.10;3.83;;;32.00;50.40;;;;;;5012521;28;20029;-70
2021/06/28 10:05:24;;;;;;;5.20;3.28;;;31.90;50.00;;;;;;5011788;28;20057;-71
2021/06/28 10:07:49;;;;;;;5.03;3.63;;;31.70;50.50;;;;;;5011525;28;20026;-70
2021/06/28 10:10:29;;;;;;;7.32;3.92;;;31.70;51.60;;;;;;4994302;28;20030;-71
2021/06/28 10:13:02;;;;;;;5.57;3.35;;;31.90;51.10;;;;;;5011668;28;20029;-70
2021/06/28 10:15:31;;;;;;;4.57;3.33;;;31.70;50.70;;;;;;5012008;28;20010;-70
2021/06/28 10:17:58;;;;;;;4.57;3.17;;;31.80;51.00;;;;;;4995107;28;20593;-72
2021/06/28 10:20:27;;;;;;;5.28;3.47;;;31.70;50.60;;;;;;5011625;28;20105;-71
2021/06/28 10:22:54;;;;;;;6.07;3.28;;;31.90;51.90;;;;;;5011449;28;20026;-70
2021/06/28 10:25:31;;;;;;;5.13;3.45;;;31.80;50.20;;;;;;5011567;28;20113;-73
2021/06/28 10:27:59;;;;;;;8.27;6.75;;;31.80;50.80;;;;;;5011036;28;20471;-71
2021/06/28 10:30:26;;;;;;;11.48;5.75;;;31.70;50.30;;;;;;5011278;28;20044;-71
2021/06/28 10:32:59;;;;;;;3.42;3.13;;;31.70;50.70;;;;;;5011880;28;20053;-72
2021/06/28 10:35:34;;;;;;;3.88;3.47;;;31.70;50.50;;;;;;5011564;28;20095;-73
2021/06/28 10:38:13;;;;;;;4.20;3.10;;;31.60;50.50;;;;;;5011171;28;20118;-71
2021/06/28 10:40:55;;;;;;;3.67;3.20;;;31.60;50.10;;;;;;5011151;28;20091;-71
2021/06/28 10:43:27;;;;;;;13.82;3.60;;;31.50;50.80;;;;;;4991704;28;20125;-71
2021/06/28 10:45:53;;;;;;;6.63;4.15;;;31.50;51.60;;;;;;4991695;28;20031;-70
2021/06/28 10:48:24;;;;;;;4.68;3.17;;;31.40;51.50;;;;;;4992131;28;20022;-70
2021/06/28 10:50:58;;;;;;;13.20;3.28;;;31.40;51.40;;;;;;4991992;28;20038;-71
2021/06/28 10:53:32;;;;;;;4.93;2.70;;;31.40;52.30;;;;;;4991338;28;20030;-70
2021/06/28 10:56:29;;;;;;;3.90;3.42;;;31.40;50.70;;;;;;4991613;28;20089;-73
2021/06/28 10:58:58;;;;;;;4.57;3.63;;;31.30;51.70;;;;;;4991126;28;20085;-73
2021/06/28 11:01:41;;;;;;;6.03;3.97;;;31.50;52.00;;;;;;4991490;28;20037;-68
2021/06/28 11:04:12;;;;;;;6.53;3.80;;;31.70;51.80;;;;;;4990997;28;20394;-73
2021/06/28 11:06:52;;;;;;;6.75;3.80;;;31.70;51.90;;;;;;4991293;28;20089;-73
2021/06/28 11:09:43;;;;;;;6.20;4.00;;;31.70;52.30;;;;;;4992086;28;20031;-77
2021/06/28 11:12:22;;;;;;;5.45;3.55;;;31.80;52.30;;;;;;4973920;28;20035;-79
2021/06/28 11:14:54;;;;;;;4.20;3.60;;;31.80;51.60;;;;;;4991250;28;20436;-78
2021/06/28 11:17:24;;;;;;;7.03;4.00;;;31.80;52.60;;;;;;4963232;28;20038;-78
2021/06/28 11:19:54;;;;;;;3.92;3.55;;;31.90;52.30;;;;;;4987632;28;20046;-79
2021/06/28 11:22:49;;;;;;;3.15;2.83;;;31.60;52.60;;;;;;4983410;28;20034;-81
2021/06/28 11:25:21;;;;;;;4.75;3.47;;;31.50;52.60;;;;;;4991177;28;20066;-76
2021/06/28 11:27:56;;;;;;;4.13;3.72;;;31.40;53.60;;;;;;4974153;28;20492;-81
2021/06/28 11:30:25;;;;;;;5.05;3.25;;;31.40;52.50;;;;;;4991328;28;20654;-80
2021/06/28 11:33:09;;;;;;;4.55;3.88;;;31.30;52.90;;;;;;4991261;28;20039;-80
2021/06/28 11:35:40;;;;;;;3.38;2.85;;;31.30;52.70;;;;;;4973961;28;20057;-78
2021/06/28 11:38:24;;;;;;;6.55;3.25;;;31.20;52.50;;;;;;4991209;28;20105;-78
2021/06/28 11:40:55;;;;;;;3.35;2.97;;;31.10;52.50;;;;;;4991100;28;20122;-79
2021/06/28 11:43:44;;;;;;;9.43;3.28;;;30.90;52.80;;;;;;4991137;28;20124;-77
2021/06/28 11:46:15;;;;;;;4.28;3.88;;;31.10;53.60;;;;;;4970073;28;20034;-79
2021/06/28 11:48:47;;;;;;;4.57;3.60;;;30.90;53.20;;;;;;4999794;28;20033;-78
2021/06/28 11:51:38;;;;;;;4.82;3.50;;;30.80;53.20;;;;;;4974227;28;20515;-78
2021/06/28 11:54:09;;;;;;;9.73;4.03;;;30.60;54.10;;;;;;4991420;28;20034;-80
2021/06/28 11:56:41;;;;;;;6.05;3.28;;;30.50;54.80;;;;;;4973607;28;20042;-78
2021/06/28 11:59:09;;;;;;;6.03;3.25;;;30.50;55.30;;;;;;4973918;28;20096;-79
2021/06/28 12:01:47;;;;;;;3.30;3.05;;;30.50;55.20;;;;;;4990634;28;20077;-79
2021/06/28 12:04:36;;;;;;;4.82;3.35;;;30.40;54.10;;;;;;4990892;28;20046;-79
2021/06/28 12:07:03;;;;;;;3.80;3.30;;;30.50;54.10;;;;;;4990399;28;20030;-78
2021/06/28 12:09:39;;;;;;;3.47;3.13;;;30.40;54.60;;;;;;4973327;28;20034;-79
2021/06/28 12:12:11;;;;;;;4.15;3.20;;;30.40;54.90;;;;;;4991243;28;20034;-79
2021/06/28 12:14:40;;;;;;;6.80;3.75;;;30.50;55.10;;;;;;4990720;28;20034;-78
2021/06/28 12:17:23;;;;;;;4.50;3.53;;;30.30;55.30;;;;;;4990843;28;20471;-79
2021/06/28 12:20:01;;;;;;;4.95;3.60;;;30.30;55.40;;;;;;4990568;28;20073;-77
2021/06/28 12:22:27;;;;;;;;;;;30.20;56.00;;;;;;4991162;28;20085;-78
2021/06/28 12:24:58;;;;;;;5.75;3.97;;;30.30;56.20;;;;;;4990477;28;19917;-77
2021/06/28 12:27:30;;;;;;;5.28;3.85;;;30.40;56.20;;;;;;4990671;28;20657;-76
2021/06/28 12:29:57;;;;;;;7.30;4.13;;;30.20;56.40;;;;;;4975136;28;20050;-76
2021/06/28 12:32:27;;;;;;;4.68;4.13;;;30.00;57.10;;;;;;4994099;28;20049;-76
2021/06/28 12:35:08;;;;;;;4.25;3.85;;;30.20;56.70;;;;;;4994252;28;20069;-76
2021/06/28 12:37:39;;;;;;;8.95;3.70;;;30.20;57.00;;;;;;4993967;28;20479;-76
2021/06/28 12:40:20;;;;;;;5.38;4.43;;;30.00;57.70;;;;;;4993821;28;20041;-76
2021/06/28 12:42:45;;;;;;;8.48;4.35;;;30.10;57.80;;;;;;4993918;28;20571;-77
2021/06/28 12:45:14;;;;;;;7.45;4.82;;;30.00;57.70;;;;;;4994223;28;20026;-76
2021/06/28 12:47:41;;;;;;;9.05;3.90;;;29.90;58.10;;;;;;4993959;28;20023;-77
2021/06/28 12:50:07;;;;;;;4.60;4.20;;;29.90;58.70;;;;;;4993746;28;20510;-76
2021/06/28 12:52:35;;;;;;;6.45;4.30;;;29.90;58.40;;;;;;4993471;28;20030;-76